createdAt,value
2022-08-31T00:00:05.194Z,11.15
2022-08-31T00:03:11.825Z,11.27
2022-08-31T00:06:04.362Z,9.98
2022-08-31T00:08:53.877Z,9.70
2022-08-31T00:11:44.444Z,8.80
2022-08-31T00:14:33.654Z,9.35
2022-08-31T00:17:22.786Z,9.10
2022-08-31T00:20:18.289Z,8.02
2022-08-31T00:23:23.659Z,8.00
2022-08-31T00:26:12.905Z,8.20
2022-08-31T00:29:04.936Z,10.02
2022-08-31T00:31:54.369Z,7.67
2022-08-31T00:34:45.446Z,9.15
2022-08-31T00:37:34.989Z,8.65
2022-08-31T00:40:25.165Z,7.80
2022-08-31T00:43:35.748Z,9.35
2022-08-31T00:46:30.386Z,7.88
2022-08-31T00:49:23.547Z,8.10
2022-08-31T00:52:17.983Z,8.15
2022-08-31T00:55:13.501Z,6.45
2022-08-31T00:58:10.095Z,6.97
2022-08-31T01:01:00.518Z,6.38
2022-08-31T01:03:51.117Z,6.63
2022-08-31T01:06:41.221Z,7.03
2022-08-31T01:09:37.877Z,8.18
2022-08-31T01:12:29.976Z,7.50
2022-08-31T01:15:20.131Z,6.93
2022-08-31T01:18:10.773Z,5.88
2022-08-31T01:21:23.360Z,6.38
2022-08-31T01:24:15.584Z,5.90
2022-08-31T01:27:07.965Z,6.40
2022-08-31T01:30:01.794Z,5.97
2022-08-31T01:32:51.237Z,5.80
2022-08-31T01:35:46.600Z,7.43
2022-08-31T01:38:36.780Z,5.75
2022-08-31T01:41:27.758Z,7.80
2022-08-31T01:44:23.698Z,6.97
2022-08-31T01:47:13.210Z,6.05
2022-08-31T01:50:02.540Z,6.05
2022-08-31T01:52:51.763Z,6.75
2022-08-31T01:55:41.223Z,5.97
2022-08-31T01:58:31.782Z,7.88
2022-08-31T02:01:33.743Z,5.57
2022-08-31T02:04:28.883Z,5.45
2022-08-31T02:07:18.016Z,7.18
2022-08-31T02:10:07.909Z,6.10
2022-08-31T02:12:57.285Z,6.32
2022-08-31T02:15:48.045Z,6.05
2022-08-31T02:18:37.902Z,5.80
2022-08-31T02:21:28.287Z,5.97
2022-08-31T02:24:19.099Z,8.85
2022-08-31T02:27:08.401Z,6.45
2022-08-31T02:29:57.803Z,6.93
2022-08-31T02:32:48.439Z,8.55
2022-08-31T02:35:38.302Z,5.82
2022-08-31T02:38:27.917Z,6.80
2022-08-31T02:41:17.705Z,7.05
2022-08-31T02:44:07.286Z,8.18
2022-08-31T02:46:56.366Z,5.88
2022-08-31T02:49:46.827Z,6.50
2022-08-31T02:52:36.519Z,7.28
2022-08-31T02:55:27.997Z,7.93
2022-08-31T02:58:23.312Z,6.65
2022-08-31T03:01:16.275Z,6.60
2022-08-31T03:04:05.828Z,5.80
2022-08-31T03:06:56.337Z,6.72
2022-08-31T03:09:45.606Z,7.30
2022-08-31T03:12:35.446Z,9.75
2022-08-31T03:15:26.924Z,6.88
2022-08-31T03:18:16.134Z,6.80
2022-08-31T03:21:05.509Z,7.78
2022-08-31T03:23:56.011Z,7.15
2022-08-31T03:26:45.977Z,7.97
2022-08-31T03:29:37.657Z,8.20
2022-08-31T03:32:28.457Z,8.52
2022-08-31T03:35:19.132Z,6.95
2022-08-31T03:38:08.681Z,7.65
2022-08-31T03:40:59.131Z,6.18
2022-08-31T03:43:48.330Z,6.90
2022-08-31T03:46:37.796Z,8.07
2022-08-31T03:49:27.722Z,6.95
2022-08-31T03:52:16.938Z,8.20
2022-08-31T03:55:10.916Z,6.80
2022-08-31T03:58:02.133Z,5.65
2022-08-31T04:00:54.203Z,6.88
2022-08-31T04:03:43.362Z,8.38
2022-08-31T04:06:33.073Z,6.22
2022-08-31T04:09:22.216Z,7.50
2022-08-31T04:12:11.479Z,9.15
2022-08-31T04:15:02.604Z,5.28
2022-08-31T04:17:55.011Z,8.00
2022-08-31T04:20:46.336Z,5.80
2022-08-31T04:23:35.629Z,7.43
2022-08-31T04:26:27.967Z,6.60
2022-08-31T04:29:17.057Z,6.75
2022-08-31T04:32:07.803Z,8.32
2022-08-31T04:34:57.077Z,7.22
2022-08-31T04:37:47.026Z,6.57
2022-08-31T04:40:38.828Z,6.03
2022-08-31T04:43:28.926Z,6.85
2022-08-31T04:46:21.013Z,14.13
2022-08-31T04:49:14.624Z,6.32
2022-08-31T04:52:04.938Z,9.40
2022-08-31T04:54:57.391Z,12.45
2022-08-31T04:57:49.143Z,8.85
2022-08-31T05:00:42.608Z,8.50
2022-08-31T05:03:31.832Z,5.38
2022-08-31T05:06:27.108Z,8.93
2022-08-31T05:09:19.478Z,7.35
2022-08-31T05:12:09.047Z,6.38
2022-08-31T05:14:58.511Z,7.72
2022-08-31T05:17:47.830Z,6.88
2022-08-31T05:20:37.081Z,6.25
2022-08-31T05:23:27.702Z,7.35
2022-08-31T05:26:26.579Z,12.07
2022-08-31T05:29:20.196Z,9.48
2022-08-31T05:32:09.403Z,9.57
2022-08-31T05:35:00.836Z,6.78
2022-08-31T05:37:52.345Z,8.77
2022-08-31T05:40:42.912Z,8.10
2022-08-31T05:43:32.008Z,9.30
2022-08-31T05:46:21.268Z,7.18
2022-08-31T05:49:12.084Z,10.77
2022-08-31T05:52:01.879Z,9.85
2022-08-31T05:54:50.984Z,9.40
2022-08-31T05:57:41.556Z,6.10
2022-08-31T06:00:31.029Z,7.40
2022-08-31T06:03:20.324Z,9.27
2022-08-31T06:06:10.322Z,11.52
2022-08-31T06:09:00.430Z,13.10
2022-08-31T06:11:51.315Z,9.85
2022-08-31T06:14:45.575Z,8.75
2022-08-31T06:17:37.579Z,12.48
2022-08-31T06:20:26.794Z,6.93
2022-08-31T06:23:16.540Z,12.40
2022-08-31T06:26:13.087Z,7.22
2022-08-31T06:29:07.149Z,12.07
2022-08-31T06:31:57.885Z,11.52
2022-08-31T06:34:47.101Z,8.40
2022-08-31T06:37:36.641Z,6.70
2022-08-31T06:40:28.631Z,12.23
2022-08-31T06:43:18.117Z,9.10
2022-08-31T06:46:08.252Z,6.70
2022-08-31T06:48:59.063Z,6.05
2022-08-31T06:51:48.823Z,10.52
2022-08-31T06:54:38.189Z,7.57
2022-08-31T06:57:27.595Z,7.72
2022-08-31T07:00:17.195Z,7.30
2022-08-31T07:03:23.011Z,10.45
2022-08-31T07:06:17.955Z,7.55
2022-08-31T07:09:10.776Z,13.68
2022-08-31T07:11:59.937Z,8.43
2022-08-31T07:14:54.769Z,7.43
2022-08-31T07:17:44.716Z,6.88
2022-08-31T07:20:33.993Z,7.45
2022-08-31T07:23:24.543Z,6.43
2022-08-31T07:26:18.026Z,7.82
2022-08-31T07:31:57.497Z,7.63
2022-08-31T07:34:56.292Z,8.43
2022-08-31T07:38:05.355Z,6.93
2022-08-31T07:41:13.219Z,7.68
2022-08-31T07:44:02.438Z,6.60
2022-08-31T07:46:55.295Z,7.28
2022-08-31T07:49:51.139Z,7.30
2022-08-31T07:52:53.018Z,6.43
2022-08-31T07:55:45.771Z,7.03
2022-08-31T08:01:32.230Z,6.50
2022-08-31T08:04:26.286Z,8.23
2022-08-31T08:07:17.418Z,7.10
2022-08-31T08:10:14.385Z,8.00
2022-08-31T08:13:05.763Z,10.00
2022-08-31T08:15:56.790Z,7.43
2022-08-31T08:18:47.076Z,8.02
2022-08-31T08:21:36.508Z,6.57
2022-08-31T08:24:29.384Z,6.90
2022-08-31T08:27:19.210Z,5.75
2022-08-31T08:30:13.701Z,8.02
2022-08-31T08:33:04.922Z,5.18
2022-08-31T08:36:00.437Z,6.23
2022-08-31T08:38:54.001Z,7.65
2022-08-31T08:41:46.269Z,8.70
2022-08-31T08:44:38.297Z,6.40
2022-08-31T08:47:37.906Z,5.28
2022-08-31T08:50:32.094Z,5.85
2022-08-31T08:53:27.111Z,5.82
2022-08-31T08:56:32.210Z,6.28
2022-08-31T08:59:22.537Z,5.07
2022-08-31T09:02:20.405Z,5.78
2022-08-31T09:05:39.298Z,5.15
2022-08-31T09:09:08.147Z,5.60
2022-08-31T09:12:25.827Z,5.68
2022-08-31T09:15:43.167Z,5.55
2022-08-31T09:18:49.027Z,4.80
2022-08-31T09:21:46.056Z,4.80
2022-08-31T09:24:35.291Z,7.55
2022-08-31T09:27:46.907Z,6.22
2022-08-31T09:30:52.438Z,3.83
2022-08-31T09:33:51.165Z,6.00
2022-08-31T09:36:42.187Z,4.05
2022-08-31T09:39:37.223Z,7.90
2022-08-31T09:42:33.640Z,6.07
2022-08-31T09:45:38.710Z,4.47
2022-08-31T09:48:53.406Z,5.03
2022-08-31T09:51:44.183Z,3.90
2022-08-31T09:54:50.918Z,4.15
2022-08-31T09:57:54.190Z,6.63
2022-08-31T10:00:51.107Z,6.00
2022-08-31T10:03:45.571Z,5.82
2022-08-31T10:06:49.710Z,8.13
2022-08-31T10:09:47.098Z,8.23
2022-08-31T10:12:48.237Z,7.07
2022-08-31T10:15:48.341Z,5.75
2022-08-31T10:18:57.672Z,4.80
2022-08-31T10:21:55.059Z,4.43
2022-08-31T10:24:49.419Z,4.22
2022-08-31T10:27:48.140Z,4.70
2022-08-31T10:30:48.706Z,6.05
2022-08-31T10:34:03.888Z,3.58
2022-08-31T10:37:03.796Z,3.42
2022-08-31T10:39:59.873Z,5.25
2022-08-31T10:43:09.563Z,4.47
2022-08-31T10:45:59.722Z,3.88
2022-08-31T10:48:54.414Z,4.68
2022-08-31T10:52:02.355Z,3.65
2022-08-31T10:55:06.553Z,4.80
2022-08-31T10:58:08.638Z,5.82
2022-08-31T11:01:07.635Z,3.72
2022-08-31T11:04:41.764Z,5.35
2022-08-31T11:07:52.208Z,3.63
2022-08-31T11:10:50.186Z,3.75
2022-08-31T11:14:01.695Z,3.47
2022-08-31T11:17:21.488Z,6.77
2022-08-31T11:21:01.630Z,3.90
2022-08-31T11:24:19.457Z,3.75
2022-08-31T11:27:23.450Z,4.05
2022-08-31T11:30:24.488Z,7.38
2022-08-31T11:33:28.288Z,3.65
2022-08-31T11:36:51.116Z,3.28
2022-08-31T11:39:45.505Z,3.55
2022-08-31T11:42:57.843Z,4.20
2022-08-31T11:49:00.302Z,3.60
2022-08-31T11:51:55.764Z,3.50
2022-08-31T11:55:08.880Z,5.95
2022-08-31T11:58:31.828Z,4.13
2022-08-31T12:01:45.291Z,3.28
2022-08-31T12:05:07.878Z,3.40
2022-08-31T12:07:58.445Z,5.05
2022-08-31T12:11:03.385Z,5.53
2022-08-31T12:14:02.587Z,3.85
2022-08-31T12:17:13.219Z,5.65
2022-08-31T12:20:12.273Z,3.47
2022-08-31T12:23:36.284Z,4.40
2022-08-31T12:26:59.607Z,4.72
2022-08-31T12:29:49.979Z,4.45
2022-08-31T12:32:45.542Z,3.58
2022-08-31T12:35:35.284Z,4.13
2022-08-31T12:38:28.148Z,4.65
2022-08-31T12:41:20.258Z,5.68
2022-08-31T12:44:21.307Z,4.63
2022-08-31T12:47:25.306Z,3.72
2022-08-31T12:50:22.651Z,3.88
2022-08-31T12:54:01.425Z,6.65
2022-08-31T12:57:01.977Z,5.30
2022-08-31T13:00:06.909Z,4.82
2022-08-31T13:03:00.706Z,6.78
2022-08-31T13:06:08.249Z,3.95
2022-08-31T13:08:59.983Z,4.50
2022-08-31T13:11:55.029Z,4.47
2022-08-31T13:14:45.243Z,7.70
2022-08-31T13:17:40.345Z,6.32
2022-08-31T13:20:42.925Z,7.47
2022-08-31T13:23:38.523Z,7.00
2022-08-31T13:26:27.805Z,6.28
2022-08-31T13:29:25.135Z,9.18
2022-08-31T13:32:32.865Z,14.45
2022-08-31T13:35:28.245Z,13.88
2022-08-31T13:38:23.049Z,12.43
2022-08-31T13:41:24.181Z,11.82
2022-08-31T13:44:15.276Z,8.95
2022-08-31T13:47:12.999Z,11.32
2022-08-31T13:50:12.969Z,9.32
2022-08-31T13:56:43.428Z,8.63
2022-08-31T13:59:37.330Z,6.25
2022-08-31T14:02:37.299Z,6.47
2022-08-31T14:05:36.209Z,5.78
2022-08-31T14:08:30.577Z,5.72
2022-08-31T14:11:39.382Z,5.70
2022-08-31T14:14:40.194Z,7.50
2022-08-31T14:17:30.862Z,6.10
2022-08-31T14:20:36.374Z,5.60
2022-08-31T14:23:37.462Z,6.15
2022-08-31T14:26:28.058Z,6.10
2022-08-31T14:29:18.411Z,5.82
2022-08-31T14:32:08.059Z,6.95
2022-08-31T14:34:58.587Z,5.85
2022-08-31T14:37:47.873Z,7.55
2022-08-31T14:40:39.094Z,7.65
2022-08-31T14:43:28.342Z,6.43
2022-08-31T14:46:28.120Z,6.70
2022-08-31T14:49:17.727Z,6.65
2022-08-31T14:52:07.192Z,6.50
2022-08-31T14:55:02.789Z,8.57
2022-08-31T14:58:02.276Z,7.97
2022-08-31T15:00:53.976Z,12.13
2022-08-31T15:03:45.107Z,12.07
2022-08-31T15:06:35.116Z,11.95
2022-08-31T15:09:24.283Z,11.52
2022-08-31T15:12:14.912Z,8.90
2022-08-31T15:15:07.574Z,7.70
2022-08-31T15:18:00.193Z,7.28
2022-08-31T15:20:49.637Z,5.22
2022-08-31T15:23:41.791Z,5.15
2022-08-31T15:26:31.076Z,5.20
2022-08-31T15:29:24.673Z,6.50
2022-08-31T15:32:17.557Z,5.57
2022-08-31T15:35:08.753Z,4.78
2022-08-31T15:38:01.364Z,5.20
2022-08-31T15:40:51.499Z,4.53
2022-08-31T15:43:42.726Z,4.80
2022-08-31T15:46:45.805Z,5.15
2022-08-31T15:49:40.265Z,6.53
2022-08-31T15:52:29.944Z,4.72
2022-08-31T15:55:26.584Z,4.53
2022-08-31T15:58:16.205Z,4.40
2022-08-31T16:01:06.099Z,5.95
2022-08-31T16:03:58.804Z,5.32
2022-08-31T16:06:49.584Z,9.30
2022-08-31T16:09:40.809Z,9.13
2022-08-31T16:12:30.340Z,14.40
2022-08-31T16:15:24.428Z,13.80
2022-08-31T16:18:13.977Z,12.23
2022-08-31T16:21:07.359Z,11.88
2022-08-31T16:24:01.702Z,14.85
2022-08-31T16:26:56.562Z,8.63
2022-08-31T16:29:47.469Z,6.35
2022-08-31T16:32:36.771Z,5.22
2022-08-31T16:35:26.185Z,5.35
2022-08-31T16:38:16.109Z,4.50
2022-08-31T16:41:07.248Z,5.07
2022-08-31T16:44:18.100Z,4.57
2022-08-31T16:47:08.411Z,4.82
2022-08-31T16:49:59.006Z,4.38
2022-08-31T16:52:51.035Z,4.90
2022-08-31T16:55:42.015Z,5.13
2022-08-31T16:58:51.078Z,5.75
2022-08-31T17:01:44.665Z,4.93
2022-08-31T17:04:51.401Z,4.75
2022-08-31T17:07:42.704Z,5.18
2022-08-31T17:10:34.407Z,4.68
2022-08-31T17:13:23.913Z,4.97
2022-08-31T17:16:21.176Z,5.00
2022-08-31T17:19:13.812Z,4.75
2022-08-31T17:22:07.295Z,4.18
2022-08-31T17:24:57.780Z,4.22
2022-08-31T17:27:51.248Z,3.90
2022-08-31T17:30:42.669Z,3.35
2022-08-31T17:33:33.287Z,3.72
2022-08-31T17:36:25.225Z,2.75
2022-08-31T17:39:16.858Z,5.25
2022-08-31T17:42:07.153Z,2.90
2022-08-31T17:44:59.011Z,2.97
2022-08-31T17:47:48.370Z,3.40
2022-08-31T17:50:43.203Z,5.05
2022-08-31T17:53:34.086Z,2.88
2022-08-31T17:56:25.186Z,3.25
2022-08-31T17:59:19.425Z,3.75
2022-08-31T18:02:13.085Z,6.13
2022-08-31T18:05:09.291Z,3.30
2022-08-31T18:08:02.512Z,4.03
2022-08-31T18:10:54.424Z,3.60
2022-08-31T18:13:44.178Z,3.20
2022-08-31T18:16:33.546Z,3.25
2022-08-31T18:19:27.462Z,4.43
2022-08-31T18:22:21.351Z,3.63
2022-08-31T18:25:12.788Z,3.95
2022-08-31T18:28:03.348Z,4.20
2022-08-31T18:30:52.867Z,7.78
2022-08-31T18:33:42.676Z,4.00
2022-08-31T18:36:38.819Z,5.05
2022-08-31T18:39:51.170Z,4.60
2022-08-31T18:42:59.240Z,3.95
2022-08-31T18:45:50.469Z,4.03
2022-08-31T18:49:01.091Z,3.88
2022-08-31T18:51:57.566Z,4.22
2022-08-31T18:54:49.124Z,4.78
2022-08-31T18:57:46.379Z,3.95
2022-08-31T19:00:40.639Z,4.47
2022-08-31T19:03:30.347Z,3.90
2022-08-31T19:06:23.152Z,4.22
2022-08-31T19:09:14.304Z,4.50
2022-08-31T19:12:04.996Z,4.38
2022-08-31T19:14:55.348Z,4.95
2022-08-31T19:17:49.279Z,4.78
2022-08-31T19:20:38.650Z,4.80
2022-08-31T19:23:28.286Z,5.10
2022-08-31T19:26:24.039Z,5.43
2022-08-31T19:29:22.926Z,5.47
2022-08-31T19:32:13.851Z,5.25
2022-08-31T19:35:07.188Z,6.53
2022-08-31T19:37:57.352Z,5.28
2022-08-31T19:40:46.782Z,6.40
2022-08-31T19:43:47.335Z,6.32
2022-08-31T19:46:52.521Z,6.18
2022-08-31T19:49:43.203Z,8.98
2022-08-31T19:52:35.765Z,8.52
2022-08-31T19:55:24.997Z,10.30
2022-08-31T19:58:14.130Z,6.45
2022-08-31T20:01:10.527Z,6.40
2022-08-31T20:04:00.320Z,5.97
2022-08-31T20:06:52.222Z,6.10
2022-08-31T20:09:43.278Z,5.60
2022-08-31T20:12:33.327Z,6.18
2022-08-31T20:15:22.551Z,6.50
2022-08-31T20:18:12.886Z,6.60
2022-08-31T20:21:02.679Z,6.82
2022-08-31T20:23:55.498Z,7.50
2022-08-31T20:26:51.803Z,8.98
2022-08-31T20:29:41.480Z,9.07
2022-08-31T20:32:31.284Z,8.60
2022-08-31T20:35:20.577Z,7.43
2022-08-31T20:38:13.162Z,10.20
2022-08-31T20:41:04.364Z,10.88
2022-08-31T20:43:56.797Z,12.15
2022-08-31T20:47:06.929Z,12.80
2022-08-31T20:49:58.672Z,8.70
2022-08-31T20:52:47.816Z,15.38
2022-08-31T20:55:38.258Z,16.55
2022-08-31T20:58:27.547Z,14.10
2022-08-31T21:01:18.228Z,14.32
2022-08-31T21:04:09.494Z,11.55
2022-08-31T21:07:01.033Z,10.23
2022-08-31T21:09:51.072Z,13.70
2022-08-31T21:12:40.319Z,13.35
2022-08-31T21:15:32.774Z,15.27
2022-08-31T21:18:23.414Z,12.55
2022-08-31T21:21:17.503Z,16.88
2022-08-31T21:24:07.653Z,11.63
2022-08-31T21:26:59.430Z,13.85
2022-08-31T21:29:49.997Z,17.70
2022-08-31T21:32:40.825Z,14.82
2022-08-31T21:35:31.485Z,14.90
2022-08-31T21:38:20.978Z,7.97
2022-08-31T21:41:12.250Z,16.00
2022-08-31T21:44:01.929Z,13.45
2022-08-31T21:46:51.309Z,8.50
2022-08-31T21:49:40.547Z,7.72
2022-08-31T21:52:31.099Z,7.88
2022-08-31T21:55:20.414Z,10.15
2022-08-31T21:58:10.718Z,7.28
2022-08-31T22:01:00.194Z,11.88
2022-08-31T22:03:58.561Z,6.47
2022-08-31T22:06:49.766Z,6.18
2022-08-31T22:09:40.766Z,14.23
2022-08-31T22:12:30.248Z,13.30
2022-08-31T22:15:23.827Z,14.32
2022-08-31T22:21:31.008Z,13.82
2022-08-31T22:24:27.332Z,12.07
2022-08-31T22:27:18.702Z,13.20
2022-08-31T22:30:09.898Z,13.75
2022-08-31T22:32:59.208Z,13.10
2022-08-31T22:35:48.513Z,12.85
2022-08-31T22:38:38.156Z,14.13
2022-08-31T22:41:27.558Z,13.48
2022-08-31T22:44:27.034Z,12.32
2022-08-31T22:47:16.130Z,12.88
2022-08-31T22:50:06.600Z,11.70
2022-08-31T22:52:55.818Z,12.93
2022-08-31T22:55:44.979Z,11.77
2022-08-31T22:58:34.137Z,7.32
2022-08-31T23:01:27.887Z,9.30
2022-08-31T23:04:20.605Z,14.05
2022-08-31T23:07:11.899Z,7.65
2022-08-31T23:10:02.859Z,11.57
2022-08-31T23:12:52.436Z,11.02
2022-08-31T23:15:45.010Z,11.02
2022-08-31T23:18:35.719Z,7.97
2022-08-31T23:21:25.841Z,9.88
2022-08-31T23:24:18.012Z,13.60
2022-08-31T23:27:09.867Z,10.30
2022-08-31T23:29:59.074Z,9.13
2022-08-31T23:32:48.437Z,13.52
2022-08-31T23:35:40.324Z,10.05
2022-08-31T23:38:32.444Z,6.65
2022-08-31T23:41:26.012Z,7.80
2022-08-31T23:44:16.631Z,7.05
2022-08-31T23:47:06.151Z,8.70
2022-08-31T23:49:55.801Z,10.35
2022-08-31T23:52:46.564Z,6.63
2022-08-31T23:55:35.906Z,5.13
2022-08-31T23:58:25.068Z,5.43
